メインページ
METAR-TAF:

METAR-TAF

空港 :

ベリーズシティ, ベリーズ

フィリップス・S・W・ゴールドソン国際空港

緯度: 17-32N, 経度: 088-18W, 海抜: 5m

現時点の気象観測

当レポートは51分前の15:00(UTC)に作成
の風 9kt
気温 29°C
湿度 74%
気圧 1016 hPa
視程10km以上
高度2000ftの千切れ雲あり

METAR: MZBZ 191500Z 08009KT 9999 BKN020 29/24 A3002 Q1016 NOSIG RMK TCU-NE, DIST SHWRS NE/SW

時間: 09:51 (15:51 UTC)

予報

当レポートは4時間51分前の11:00(UTC)に作成
予報は19日の 12時(UTC)から 20日の 12時(UTC)まで有効
の風 8kt
視程10km以上
高度2300ftの雲は散在している
確率 30% :
19日の 12時(UTC)から 19日の 18時(UTC)まで一時的に
視程: 5000m
高度1500ftの千切れ雲あり
にわか雨

TAF: MZBZ 191100Z 1912/2012 08008KT 9999 SCT023 PROB30 TEMPO 1912/1918 5000 SHRA BKN015

4,000以上の空港の気象観測と天気予報(METAR報とTAF報)

利用可能な観測所は地図上に黄色い丸と赤い丸で示す。

丸の上にカーソルを重ねると観測所名を参照できる。

次にクリックすると気象観測と天気予報を参照できる。

マップの切り替え:黒色「×」印の緑ボタンをクリックして拡大、「-」印の緑ボタンをクリックして縮小、緑色の三角印をクリックして隣りの地図に切り替え


METAR-TAF: